sensor_id;sensor_type;location;lat;lon;timestamp;P1;durP1;ratioP1;P2;durP2;ratioP2
80187;SDS011;73735;52.134;5.436;2024-03-25T00:01:50;9.57;;;1.65;;
80187;SDS011;73735;52.134;5.436;2024-03-25T00:04:16;7.88;;;1.40;;
80187;SDS011;73735;52.134;5.436;2024-03-25T00:06:41;7.13;;;1.77;;
80187;SDS011;73735;52.134;5.436;2024-03-25T00:09:07;7.70;;;1.60;;
80187;SDS011;73735;52.134;5.436;2024-03-25T00:11:39;11.57;;;2.33;;
80187;SDS011;73735;52.134;5.436;2024-03-25T00:14:05;7.68;;;1.83;;
80187;SDS011;73735;52.134;5.436;2024-03-25T00:16:30;7.68;;;1.58;;
80187;SDS011;73735;52.134;5.436;2024-03-25T00:18:56;8.27;;;1.80;;
80187;SDS011;73735;52.134;5.436;2024-03-25T00:21:22;8.45;;;1.80;;
80187;SDS011;73735;52.134;5.436;2024-03-25T00:23:47;9.05;;;1.67;;
80187;SDS011;73735;52.134;5.436;2024-03-25T00:26:12;12.15;;;2.35;;
80187;SDS011;73735;52.134;5.436;2024-03-25T00:28:38;6.93;;;1.50;;
80187;SDS011;73735;52.134;5.436;2024-03-25T00:31:04;11.82;;;1.90;;
80187;SDS011;73735;52.134;5.436;2024-03-25T00:33:29;8.00;;;1.73;;
80187;SDS011;73735;52.134;5.436;2024-03-25T00:35:55;12.55;;;2.33;;
80187;SDS011;73735;52.134;5.436;2024-03-25T00:38:20;9.80;;;2.00;;
80187;SDS011;73735;52.134;5.436;2024-03-25T00:40:46;8.93;;;1.85;;
80187;SDS011;73735;52.134;5.436;2024-03-25T00:43:11;10.10;;;1.83;;
80187;SDS011;73735;52.134;5.436;2024-03-25T00:45:37;8.00;;;1.50;;
80187;SDS011;73735;52.134;5.436;2024-03-25T00:48:03;9.15;;;1.88;;
80187;SDS011;73735;52.134;5.436;2024-03-25T00:50:29;10.15;;;1.90;;
80187;SDS011;73735;52.134;5.436;2024-03-25T00:52:54;7.10;;;1.42;;
80187;SDS011;73735;52.134;5.436;2024-03-25T00:55:20;7.75;;;1.80;;
80187;SDS011;73735;52.134;5.436;2024-03-25T00:57:46;9.63;;;1.80;;
80187;SDS011;73735;52.134;5.436;2024-03-25T01:00:11;8.25;;;1.60;;
80187;SDS011;73735;52.134;5.436;2024-03-25T01:02:37;10.82;;;1.77;;
80187;SDS011;73735;52.134;5.436;2024-03-25T01:05:03;6.45;;;1.20;;
80187;SDS011;73735;52.134;5.436;2024-03-25T01:07:30;11.05;;;1.60;;
80187;SDS011;73735;52.134;5.436;2024-03-25T01:09:56;6.13;;;1.30;;
80187;SDS011;73735;52.134;5.436;2024-03-25T01:12:21;8.23;;;1.40;;
80187;SDS011;73735;52.134;5.436;2024-03-25T01:14:47;10.05;;;1.90;;
80187;SDS011;73735;52.134;5.436;2024-03-25T01:17:12;9.73;;;1.75;;
80187;SDS011;73735;52.134;5.436;2024-03-25T01:19:38;10.25;;;2.13;;
80187;SDS011;73735;52.134;5.436;2024-03-25T01:22:03;8.20;;;1.67;;
80187;SDS011;73735;52.134;5.436;2024-03-25T01:24:30;8.05;;;2.05;;
80187;SDS011;73735;52.134;5.436;2024-03-25T01:26:55;8.63;;;1.67;;
80187;SDS011;73735;52.134;5.436;2024-03-25T01:29:21;7.85;;;1.40;;
80187;SDS011;73735;52.134;5.436;2024-03-25T01:31:47;5.53;;;1.33;;
80187;SDS011;73735;52.134;5.436;2024-03-25T01:34:12;9.25;;;1.98;;
80187;SDS011;73735;52.134;5.436;2024-03-25T01:36:38;9.82;;;1.63;;
80187;SDS011;73735;52.134;5.436;2024-03-25T01:39:04;12.80;;;1.70;;
80187;SDS011;73735;52.134;5.436;2024-03-25T01:41:30;11.88;;;1.77;;
80187;SDS011;73735;52.134;5.436;2024-03-25T01:43:56;9.55;;;2.20;;
80187;SDS011;73735;52.134;5.436;2024-03-25T01:46:21;9.30;;;1.88;;
80187;SDS011;73735;52.134;5.436;2024-03-25T01:48:48;6.82;;;1.20;;
80187;SDS011;73735;52.134;5.436;2024-03-25T01:53:42;5.78;;;1.10;;
80187;SDS011;73735;52.134;5.436;2024-03-25T01:56:08;8.18;;;1.50;;
80187;SDS011;73735;52.134;5.436;2024-03-25T01:58:35;6.72;;;2.08;;
80187;SDS011;73735;52.134;5.436;2024-03-25T02:01:02;9.52;;;1.70;;
80187;SDS011;73735;52.134;5.436;2024-03-25T02:03:29;7.75;;;1.95;;
80187;SDS011;73735;52.134;5.436;2024-03-25T02:05:55;8.02;;;1.50;;
80187;SDS011;73735;52.134;5.436;2024-03-25T02:08:31;5.80;;;1.50;;
80187;SDS011;73735;52.134;5.436;2024-03-25T02:10:58;6.53;;;1.40;;
80187;SDS011;73735;52.134;5.436;2024-03-25T02:13:23;7.38;;;1.67;;
80187;SDS011;73735;52.134;5.436;2024-03-25T02:15:49;8.85;;;1.45;;
80187;SDS011;73735;52.134;5.436;2024-03-25T02:18:16;7.43;;;1.55;;
80187;SDS011;73735;52.134;5.436;2024-03-25T02:20:43;7.72;;;1.95;;
80187;SDS011;73735;52.134;5.436;2024-03-25T02:23:08;9.93;;;2.10;;
80187;SDS011;73735;52.134;5.436;2024-03-25T02:25:35;7.15;;;2.28;;
80187;SDS011;73735;52.134;5.436;2024-03-25T02:28:03;7.85;;;2.00;;
80187;SDS011;73735;52.134;5.436;2024-03-25T02:30:29;9.50;;;1.98;;
80187;SDS011;73735;52.134;5.436;2024-03-25T02:32:54;8.90;;;1.83;;
80187;SDS011;73735;52.134;5.436;2024-03-25T02:35:20;8.95;;;1.65;;
80187;SDS011;73735;52.134;5.436;2024-03-25T02:37:47;7.15;;;1.40;;
80187;SDS011;73735;52.134;5.436;2024-03-25T02:40:13;8.73;;;1.60;;
80187;SDS011;73735;52.134;5.436;2024-03-25T02:42:39;10.65;;;1.80;;
80187;SDS011;73735;52.134;5.436;2024-03-25T02:45:05;7.70;;;1.95;;
80187;SDS011;73735;52.134;5.436;2024-03-25T02:47:31;7.82;;;1.65;;
80187;SDS011;73735;52.134;5.436;2024-03-25T02:49:57;6.53;;;1.77;;
80187;SDS011;73735;52.134;5.436;2024-03-25T02:52:22;6.18;;;1.75;;
80187;SDS011;73735;52.134;5.436;2024-03-25T02:54:48;7.50;;;1.55;;
80187;SDS011;73735;52.134;5.436;2024-03-25T02:57:13;7.18;;;1.65;;
80187;SDS011;73735;52.134;5.436;2024-03-25T02:59:39;8.50;;;1.67;;
80187;SDS011;73735;52.134;5.436;2024-03-25T03:02:04;7.35;;;2.47;;
80187;SDS011;73735;52.134;5.436;2024-03-25T03:04:29;7.13;;;1.67;;
80187;SDS011;73735;52.134;5.436;2024-03-25T03:06:56;6.88;;;1.58;;
80187;SDS011;73735;52.134;5.436;2024-03-25T03:09:21;10.55;;;1.88;;
80187;SDS011;73735;52.134;5.436;2024-03-25T03:11:47;13.75;;;2.00;;
80187;SDS011;73735;52.134;5.436;2024-03-25T03:14:12;9.30;;;2.10;;
80187;SDS011;73735;52.134;5.436;2024-03-25T03:16:38;8.90;;;1.70;;
80187;SDS011;73735;52.134;5.436;2024-03-25T03:19:04;10.32;;;2.05;;
80187;SDS011;73735;52.134;5.436;2024-03-25T03:21:30;7.25;;;1.88;;
80187;SDS011;73735;52.134;5.436;2024-03-25T03:23:55;7.65;;;1.55;;
80187;SDS011;73735;52.134;5.436;2024-03-25T03:26:21;10.85;;;1.80;;
80187;SDS011;73735;52.134;5.436;2024-03-25T03:28:52;9.50;;;2.15;;
80187;SDS011;73735;52.134;5.436;2024-03-25T03:31:21;7.68;;;2.22;;
80187;SDS011;73735;52.134;5.436;2024-03-25T03:33:50;5.13;;;1.40;;
80187;SDS011;73735;52.134;5.436;2024-03-25T03:36:17;12.02;;;1.70;;
80187;SDS011;73735;52.134;5.436;2024-03-25T03:38:44;12.88;;;2.67;;
80187;SDS011;73735;52.134;5.436;2024-03-25T03:41:10;11.23;;;2.55;;
80187;SDS011;73735;52.134;5.436;2024-03-25T03:43:35;7.97;;;1.67;;
80187;SDS011;73735;52.134;5.436;2024-03-25T03:46:01;8.68;;;2.10;;
80187;SDS011;73735;52.134;5.436;2024-03-25T03:48:28;8.07;;;2.00;;
80187;SDS011;73735;52.134;5.436;2024-03-25T03:50:54;9.75;;;1.83;;
80187;SDS011;73735;52.134;5.436;2024-03-25T03:53:19;7.72;;;1.55;;
80187;SDS011;73735;52.134;5.436;2024-03-25T03:55:55;8.20;;;2.00;;
80187;SDS011;73735;52.134;5.436;2024-03-25T03:58:21;7.82;;;2.03;;
80187;SDS011;73735;52.134;5.436;2024-03-25T04:00:47;6.22;;;1.60;;
80187;SDS011;73735;52.134;5.436;2024-03-25T04:03:13;11.60;;;2.42;;
80187;SDS011;73735;52.134;5.436;2024-03-25T04:05:38;5.65;;;1.73;;
80187;SDS011;73735;52.134;5.436;2024-03-25T04:08:04;7.65;;;1.63;;
80187;SDS011;73735;52.134;5.436;2024-03-25T04:10:29;8.10;;;1.65;;
80187;SDS011;73735;52.134;5.436;2024-03-25T04:12:55;7.82;;;2.00;;
80187;SDS011;73735;52.134;5.436;2024-03-25T04:15:22;8.07;;;1.70;;
80187;SDS011;73735;52.134;5.436;2024-03-25T04:17:47;8.75;;;1.50;;
80187;SDS011;73735;52.134;5.436;2024-03-25T04:20:14;8.60;;;1.80;;
80187;SDS011;73735;52.134;5.436;2024-03-25T04:22:50;7.28;;;2.15;;
80187;SDS011;73735;52.134;5.436;2024-03-25T04:25:15;6.05;;;1.80;;
80187;SDS011;73735;52.134;5.436;2024-03-25T04:27:42;7.03;;;1.70;;
80187;SDS011;73735;52.134;5.436;2024-03-25T04:30:08;7.45;;;1.85;;
80187;SDS011;73735;52.134;5.436;2024-03-25T04:32:34;8.45;;;1.85;;
80187;SDS011;73735;52.134;5.436;2024-03-25T04:35:01;8.45;;;2.22;;
80187;SDS011;73735;52.134;5.436;2024-03-25T04:37:27;9.52;;;2.00;;
80187;SDS011;73735;52.134;5.436;2024-03-25T04:39:56;4.88;;;1.38;;
80187;SDS011;73735;52.134;5.436;2024-03-25T04:42:21;8.13;;;1.80;;
80187;SDS011;73735;52.134;5.436;2024-03-25T04:44:48;8.98;;;2.00;;
80187;SDS011;73735;52.134;5.436;2024-03-25T04:47:13;5.32;;;1.85;;
80187;SDS011;73735;52.134;5.436;2024-03-25T04:49:40;4.80;;;1.85;;
80187;SDS011;73735;52.134;5.436;2024-03-25T04:52:06;6.13;;;2.00;;
80187;SDS011;73735;52.134;5.436;2024-03-25T04:54:32;6.68;;;1.60;;
80187;SDS011;73735;52.134;5.436;2024-03-25T04:56:57;9.40;;;1.63;;
80187;SDS011;73735;52.134;5.436;2024-03-25T04:59:23;8.13;;;1.63;;
80187;SDS011;73735;52.134;5.436;2024-03-25T05:01:48;10.43;;;1.92;;
80187;SDS011;73735;52.134;5.436;2024-03-25T05:04:14;8.50;;;1.73;;
80187;SDS011;73735;52.134;5.436;2024-03-25T05:06:39;7.43;;;1.73;;
80187;SDS011;73735;52.134;5.436;2024-03-25T05:09:05;6.32;;;1.90;;
80187;SDS011;73735;52.134;5.436;2024-03-25T05:11:33;6.55;;;1.50;;
80187;SDS011;73735;52.134;5.436;2024-03-25T05:13:59;7.68;;;2.53;;
80187;SDS011;73735;52.134;5.436;2024-03-25T05:16:25;8.57;;;1.88;;
80187;SDS011;73735;52.134;5.436;2024-03-25T05:18:50;9.32;;;1.73;;
80187;SDS011;73735;52.134;5.436;2024-03-25T05:21:16;10.25;;;2.13;;
80187;SDS011;73735;52.134;5.436;2024-03-25T05:23:41;9.23;;;2.03;;
80187;SDS011;73735;52.134;5.436;2024-03-25T05:26:07;8.77;;;2.15;;
80187;SDS011;73735;52.134;5.436;2024-03-25T05:28:33;9.82;;;1.52;;
80187;SDS011;73735;52.134;5.436;2024-03-25T05:31:05;7.05;;;2.05;;
80187;SDS011;73735;52.134;5.436;2024-03-25T05:33:34;6.85;;;2.15;;
80187;SDS011;73735;52.134;5.436;2024-03-25T05:36:00;8.43;;;1.98;;
80187;SDS011;73735;52.134;5.436;2024-03-25T05:38:29;6.88;;;2.20;;
80187;SDS011;73735;52.134;5.436;2024-03-25T05:40:55;6.60;;;1.70;;
80187;SDS011;73735;52.134;5.436;2024-03-25T05:43:22;8.60;;;1.88;;
80187;SDS011;73735;52.134;5.436;2024-03-25T05:45:53;6.20;;;1.90;;
80187;SDS011;73735;52.134;5.436;2024-03-25T05:48:19;5.35;;;1.40;;
80187;SDS011;73735;52.134;5.436;2024-03-25T05:50:45;11.02;;;2.20;;
80187;SDS011;73735;52.134;5.436;2024-03-25T05:53:11;9.32;;;2.33;;
80187;SDS011;73735;52.134;5.436;2024-03-25T05:55:37;8.35;;;2.17;;
80187;SDS011;73735;52.134;5.436;2024-03-25T05:58:03;6.90;;;2.00;;
80187;SDS011;73735;52.134;5.436;2024-03-25T06:00:29;6.65;;;1.83;;
80187;SDS011;73735;52.134;5.436;2024-03-25T06:02:58;7.40;;;1.88;;
80187;SDS011;73735;52.134;5.436;2024-03-25T06:05:23;10.52;;;2.20;;
80187;SDS011;73735;52.134;5.436;2024-03-25T06:07:49;11.27;;;2.35;;
80187;SDS011;73735;52.134;5.436;2024-03-25T06:10:15;6.47;;;2.00;;
80187;SDS011;73735;52.134;5.436;2024-03-25T06:12:40;7.13;;;2.15;;
80187;SDS011;73735;52.134;5.436;2024-03-25T06:15:06;8.50;;;2.08;;
80187;SDS011;73735;52.134;5.436;2024-03-25T06:17:32;10.20;;;2.75;;
80187;SDS011;73735;52.134;5.436;2024-03-25T06:19:58;10.35;;;2.40;;
80187;SDS011;73735;52.134;5.436;2024-03-25T06:22:23;8.85;;;2.80;;
80187;SDS011;73735;52.134;5.436;2024-03-25T06:24:49;10.15;;;2.58;;
80187;SDS011;73735;52.134;5.436;2024-03-25T06:27:15;10.10;;;2.70;;
80187;SDS011;73735;52.134;5.436;2024-03-25T06:29:41;10.50;;;2.72;;
80187;SDS011;73735;52.134;5.436;2024-03-25T06:32:08;8.18;;;3.13;;
80187;SDS011;73735;52.134;5.436;2024-03-25T06:34:52;9.65;;;2.58;;
80187;SDS011;73735;52.134;5.436;2024-03-25T06:37:18;8.98;;;2.75;;
80187;SDS011;73735;52.134;5.436;2024-03-25T06:39:43;14.68;;;3.28;;
80187;SDS011;73735;52.134;5.436;2024-03-25T06:42:09;9.23;;;3.30;;
80187;SDS011;73735;52.134;5.436;2024-03-25T06:44:34;9.55;;;2.83;;
80187;SDS011;73735;52.134;5.436;2024-03-25T06:47:00;10.40;;;2.85;;
80187;SDS011;73735;52.134;5.436;2024-03-25T06:49:25;8.30;;;2.90;;
80187;SDS011;73735;52.134;5.436;2024-03-25T06:51:51;8.15;;;2.60;;
80187;SDS011;73735;52.134;5.436;2024-03-25T06:54:16;9.88;;;2.72;;
80187;SDS011;73735;52.134;5.436;2024-03-25T06:56:42;10.23;;;2.15;;
80187;SDS011;73735;52.134;5.436;2024-03-25T06:59:08;10.27;;;2.72;;
80187;SDS011;73735;52.134;5.436;2024-03-25T07:01:33;10.50;;;2.45;;
80187;SDS011;73735;52.134;5.436;2024-03-25T07:03:59;9.25;;;2.75;;
80187;SDS011;73735;52.134;5.436;2024-03-25T07:06:26;7.82;;;2.35;;
80187;SDS011;73735;52.134;5.436;2024-03-25T07:08:52;10.15;;;2.42;;
80187;SDS011;73735;52.134;5.436;2024-03-25T07:11:17;10.65;;;2.50;;
80187;SDS011;73735;52.134;5.436;2024-03-25T07:13:43;10.55;;;2.70;;
80187;SDS011;73735;52.134;5.436;2024-03-25T07:16:08;8.52;;;2.58;;
80187;SDS011;73735;52.134;5.436;2024-03-25T07:18:34;11.55;;;2.55;;
80187;SDS011;73735;52.134;5.436;2024-03-25T07:20:59;9.02;;;2.47;;
80187;SDS011;73735;52.134;5.436;2024-03-25T07:23:25;8.80;;;2.50;;
80187;SDS011;73735;52.134;5.436;2024-03-25T07:25:50;9.13;;;2.03;;
80187;SDS011;73735;52.134;5.436;2024-03-25T07:28:15;9.68;;;2.72;;
80187;SDS011;73735;52.134;5.436;2024-03-25T07:30:41;7.32;;;2.20;;
80187;SDS011;73735;52.134;5.436;2024-03-25T07:33:07;13.73;;;2.42;;
80187;SDS011;73735;52.134;5.436;2024-03-25T07:35:32;7.60;;;2.28;;
80187;SDS011;73735;52.134;5.436;2024-03-25T07:37:59;14.20;;;2.83;;
80187;SDS011;73735;52.134;5.436;2024-03-25T07:40:24;9.52;;;2.20;;
80187;SDS011;73735;52.134;5.436;2024-03-25T07:42:50;10.65;;;2.90;;
80187;SDS011;73735;52.134;5.436;2024-03-25T07:45:15;8.10;;;2.42;;
80187;SDS011;73735;52.134;5.436;2024-03-25T07:47:41;11.80;;;3.50;;
80187;SDS011;73735;52.134;5.436;2024-03-25T07:50:07;13.15;;;2.35;;
80187;SDS011;73735;52.134;5.436;2024-03-25T07:52:33;11.57;;;2.40;;
80187;SDS011;73735;52.134;5.436;2024-03-25T07:55:01;10.02;;;2.78;;
80187;SDS011;73735;52.134;5.436;2024-03-25T07:57:27;10.50;;;2.55;;
80187;SDS011;73735;52.134;5.436;2024-03-25T07:59:53;8.43;;;2.05;;
80187;SDS011;73735;52.134;5.436;2024-03-25T08:02:19;6.13;;;1.83;;
80187;SDS011;73735;52.134;5.436;2024-03-25T08:04:44;9.57;;;3.13;;
80187;SDS011;73735;52.134;5.436;2024-03-25T08:07:10;11.07;;;2.47;;
80187;SDS011;73735;52.134;5.436;2024-03-25T08:09:35;10.38;;;2.25;;
80187;SDS011;73735;52.134;5.436;2024-03-25T08:12:00;9.18;;;2.03;;
80187;SDS011;73735;52.134;5.436;2024-03-25T08:14:26;13.98;;;3.00;;
80187;SDS011;73735;52.134;5.436;2024-03-25T08:16:51;6.50;;;2.17;;
80187;SDS011;73735;52.134;5.436;2024-03-25T08:19:17;14.27;;;2.40;;
80187;SDS011;73735;52.134;5.436;2024-03-25T08:21:42;9.23;;;2.70;;
80187;SDS011;73735;52.134;5.436;2024-03-25T08:24:08;9.55;;;2.22;;
80187;SDS011;73735;52.134;5.436;2024-03-25T08:26:33;11.60;;;2.58;;
80187;SDS011;73735;52.134;5.436;2024-03-25T08:28:59;12.20;;;2.15;;
80187;SDS011;73735;52.134;5.436;2024-03-25T08:31:24;12.77;;;2.25;;
80187;SDS011;73735;52.134;5.436;2024-03-25T08:33:50;10.13;;;2.33;;
80187;SDS011;73735;52.134;5.436;2024-03-25T08:36:16;7.05;;;2.10;;
80187;SDS011;73735;52.134;5.436;2024-03-25T08:38:43;6.03;;;1.45;;
80187;SDS011;73735;52.134;5.436;2024-03-25T08:41:09;7.68;;;1.55;;
80187;SDS011;73735;52.134;5.436;2024-03-25T08:43:35;12.27;;;1.60;;
80187;SDS011;73735;52.134;5.436;2024-03-25T08:46:00;8.55;;;1.60;;
80187;SDS011;73735;52.134;5.436;2024-03-25T08:48:26;5.78;;;1.73;;
80187;SDS011;73735;52.134;5.436;2024-03-25T08:50:52;6.57;;;1.60;;
80187;SDS011;73735;52.134;5.436;2024-03-25T08:53:17;10.15;;;1.90;;
80187;SDS011;73735;52.134;5.436;2024-03-25T08:55:46;10.82;;;1.90;;
80187;SDS011;73735;52.134;5.436;2024-03-25T08:58:12;11.90;;;2.03;;
80187;SDS011;73735;52.134;5.436;2024-03-25T09:00:43;10.70;;;1.92;;
80187;SDS011;73735;52.134;5.436;2024-03-25T09:03:09;11.23;;;2.20;;
80187;SDS011;73735;52.134;5.436;2024-03-25T09:05:36;9.38;;;2.08;;
80187;SDS011;73735;52.134;5.436;2024-03-25T09:08:04;10.32;;;2.30;;
80187;SDS011;73735;52.134;5.436;2024-03-25T09:10:31;10.48;;;2.15;;
80187;SDS011;73735;52.134;5.436;2024-03-25T09:13:15;8.48;;;2.00;;
80187;SDS011;73735;52.134;5.436;2024-03-25T09:15:43;7.43;;;2.25;;
80187;SDS011;73735;52.134;5.436;2024-03-25T09:18:09;10.25;;;2.33;;
80187;SDS011;73735;52.134;5.436;2024-03-25T09:20:34;10.45;;;2.50;;
80187;SDS011;73735;52.134;5.436;2024-03-25T09:23:00;9.80;;;1.98;;
80187;SDS011;73735;52.134;5.436;2024-03-25T09:25:25;9.93;;;1.70;;
80187;SDS011;73735;52.134;5.436;2024-03-25T09:27:51;10.98;;;2.13;;
80187;SDS011;73735;52.134;5.436;2024-03-25T09:30:17;6.93;;;1.45;;
80187;SDS011;73735;52.134;5.436;2024-03-25T09:32:44;5.53;;;1.85;;
80187;SDS011;73735;52.134;5.436;2024-03-25T09:35:10;8.95;;;3.00;;
80187;SDS011;73735;52.134;5.436;2024-03-25T09:37:36;11.68;;;3.28;;
80187;SDS011;73735;52.134;5.436;2024-03-25T09:40:02;15.20;;;3.50;;
80187;SDS011;73735;52.134;5.436;2024-03-25T09:42:46;7.95;;;2.50;;
80187;SDS011;73735;52.134;5.436;2024-03-25T09:45:15;13.93;;;3.00;;
80187;SDS011;73735;52.134;5.436;2024-03-25T09:47:45;8.88;;;3.38;;
80187;SDS011;73735;52.134;5.436;2024-03-25T09:50:14;12.38;;;3.30;;
80187;SDS011;73735;52.134;5.436;2024-03-25T09:52:45;15.13;;;3.78;;
80187;SDS011;73735;52.134;5.436;2024-03-25T09:55:14;12.18;;;3.13;;
80187;SDS011;73735;52.134;5.436;2024-03-25T09:57:40;10.10;;;2.78;;
80187;SDS011;73735;52.134;5.436;2024-03-25T10:00:07;8.30;;;2.15;;
80187;SDS011;73735;52.134;5.436;2024-03-25T10:02:34;8.98;;;2.58;;
80187;SDS011;73735;52.134;5.436;2024-03-25T10:05:02;9.65;;;3.08;;
80187;SDS011;73735;52.134;5.436;2024-03-25T10:07:28;10.95;;;2.67;;
80187;SDS011;73735;52.134;5.436;2024-03-25T10:09:54;14.60;;;2.47;;
80187;SDS011;73735;52.134;5.436;2024-03-25T10:12:19;9.35;;;3.50;;
80187;SDS011;73735;52.134;5.436;2024-03-25T10:14:45;12.20;;;2.83;;
80187;SDS011;73735;52.134;5.436;2024-03-25T10:17:10;8.80;;;2.47;;
80187;SDS011;73735;52.134;5.436;2024-03-25T10:19:36;11.43;;;2.60;;
80187;SDS011;73735;52.134;5.436;2024-03-25T10:22:03;18.83;;;2.67;;
80187;SDS011;73735;52.134;5.436;2024-03-25T10:24:36;8.68;;;2.55;;
80187;SDS011;73735;52.134;5.436;2024-03-25T10:29:47;11.00;;;3.17;;
80187;SDS011;73735;52.134;5.436;2024-03-25T10:32:13;9.65;;;2.88;;
80187;SDS011;73735;52.134;5.436;2024-03-25T10:34:40;10.45;;;3.00;;
80187;SDS011;73735;52.134;5.436;2024-03-25T10:37:07;9.68;;;2.60;;
80187;SDS011;73735;52.134;5.436;2024-03-25T10:39:34;8.60;;;2.80;;
80187;SDS011;73735;52.134;5.436;2024-03-25T10:42:04;9.60;;;3.13;;
80187;SDS011;73735;52.134;5.436;2024-03-25T10:44:30;9.57;;;2.78;;
80187;SDS011;73735;52.134;5.436;2024-03-25T10:47:05;10.23;;;3.22;;
80187;SDS011;73735;52.134;5.436;2024-03-25T10:49:34;11.45;;;2.90;;
80187;SDS011;73735;52.134;5.436;2024-03-25T10:52:06;13.32;;;3.03;;
80187;SDS011;73735;52.134;5.436;2024-03-25T10:54:33;6.80;;;2.75;;
80187;SDS011;73735;52.134;5.436;2024-03-25T10:57:00;8.38;;;2.60;;
80187;SDS011;73735;52.134;5.436;2024-03-25T10:59:29;9.77;;;2.85;;
80187;SDS011;73735;52.134;5.436;2024-03-25T11:01:56;8.98;;;2.97;;
80187;SDS011;73735;52.134;5.436;2024-03-25T11:04:22;10.15;;;3.10;;
80187;SDS011;73735;52.134;5.436;2024-03-25T11:06:48;7.28;;;2.78;;
80187;SDS011;73735;52.134;5.436;2024-03-25T11:09:23;7.00;;;2.35;;
80187;SDS011;73735;52.134;5.436;2024-03-25T11:11:54;12.40;;;3.20;;
80187;SDS011;73735;52.134;5.436;2024-03-25T11:14:19;8.30;;;2.88;;
80187;SDS011;73735;52.134;5.436;2024-03-25T11:16:54;9.95;;;2.72;;
80187;SDS011;73735;52.134;5.436;2024-03-25T11:19:20;6.75;;;2.65;;
80187;SDS011;73735;52.134;5.436;2024-03-25T11:21:52;8.82;;;2.60;;
80187;SDS011;73735;52.134;5.436;2024-03-25T11:24:30;9.18;;;2.88;;
80187;SDS011;73735;52.134;5.436;2024-03-25T11:26:55;7.85;;;3.38;;
80187;SDS011;73735;52.134;5.436;2024-03-25T11:29:21;8.50;;;2.47;;
80187;SDS011;73735;52.134;5.436;2024-03-25T11:31:49;8.52;;;2.83;;
80187;SDS011;73735;52.134;5.436;2024-03-25T11:34:15;8.60;;;2.63;;
80187;SDS011;73735;52.134;5.436;2024-03-25T11:36:41;7.10;;;2.83;;
80187;SDS011;73735;52.134;5.436;2024-03-25T11:39:06;8.82;;;2.67;;
80187;SDS011;73735;52.134;5.436;2024-03-25T11:41:41;6.43;;;2.65;;
80187;SDS011;73735;52.134;5.436;2024-03-25T11:44:08;9.90;;;2.95;;
80187;SDS011;73735;52.134;5.436;2024-03-25T11:46:37;9.00;;;2.95;;
80187;SDS011;73735;52.134;5.436;2024-03-25T11:49:11;7.30;;;2.70;;
80187;SDS011;73735;52.134;5.436;2024-03-25T11:51:38;9.68;;;3.28;;
80187;SDS011;73735;52.134;5.436;2024-03-25T11:54:07;8.02;;;2.72;;
80187;SDS011;73735;52.134;5.436;2024-03-25T11:56:36;7.85;;;3.85;;
80187;SDS011;73735;52.134;5.436;2024-03-25T11:59:05;10.52;;;3.65;;
80187;SDS011;73735;52.134;5.436;2024-03-25T12:01:31;6.13;;;2.60;;
80187;SDS011;73735;52.134;5.436;2024-03-25T12:03:56;7.97;;;2.97;;
80187;SDS011;73735;52.134;5.436;2024-03-25T12:06:22;8.82;;;3.03;;
80187;SDS011;73735;52.134;5.436;2024-03-25T12:08:47;7.47;;;2.95;;
80187;SDS011;73735;52.134;5.436;2024-03-25T12:11:32;9.65;;;3.28;;
80187;SDS011;73735;52.134;5.436;2024-03-25T12:13:58;8.38;;;3.03;;
80187;SDS011;73735;52.134;5.436;2024-03-25T12:16:24;9.23;;;3.03;;
80187;SDS011;73735;52.134;5.436;2024-03-25T12:18:50;9.50;;;3.40;;
80187;SDS011;73735;52.134;5.436;2024-03-25T12:21:17;8.30;;;3.65;;
80187;SDS011;73735;52.134;5.436;2024-03-25T12:23:43;10.13;;;3.63;;
80187;SDS011;73735;52.134;5.436;2024-03-25T12:26:08;9.40;;;3.40;;
80187;SDS011;73735;52.134;5.436;2024-03-25T12:28:34;9.15;;;3.65;;
80187;SDS011;73735;52.134;5.436;2024-03-25T12:31:02;8.95;;;3.33;;
80187;SDS011;73735;52.134;5.436;2024-03-25T12:33:27;9.68;;;3.55;;
80187;SDS011;73735;52.134;5.436;2024-03-25T12:35:53;7.10;;;3.30;;
80187;SDS011;73735;52.134;5.436;2024-03-25T12:38:23;7.10;;;3.58;;
80187;SDS011;73735;52.134;5.436;2024-03-25T12:40:50;8.27;;;2.90;;
80187;SDS011;73735;52.134;5.436;2024-03-25T12:43:16;6.47;;;2.85;;
80187;SDS011;73735;52.134;5.436;2024-03-25T12:45:42;6.55;;;2.65;;
80187;SDS011;73735;52.134;5.436;2024-03-25T12:48:08;6.65;;;2.92;;
80187;SDS011;73735;52.134;5.436;2024-03-25T12:50:34;7.38;;;3.17;;
80187;SDS011;73735;52.134;5.436;2024-03-25T12:53:00;7.60;;;2.83;;
80187;SDS011;73735;52.134;5.436;2024-03-25T12:55:25;6.88;;;2.80;;
80187;SDS011;73735;52.134;5.436;2024-03-25T12:57:51;7.82;;;2.90;;
80187;SDS011;73735;52.134;5.436;2024-03-25T13:00:16;7.40;;;2.88;;
80187;SDS011;73735;52.134;5.436;2024-03-25T13:02:43;7.25;;;3.03;;
80187;SDS011;73735;52.134;5.436;2024-03-25T13:05:09;7.03;;;3.05;;
80187;SDS011;73735;52.134;5.436;2024-03-25T13:07:35;8.48;;;3.25;;
80187;SDS011;73735;52.134;5.436;2024-03-25T13:10:03;7.80;;;3.15;;
80187;SDS011;73735;52.134;5.436;2024-03-25T13:14:55;6.18;;;3.00;;
80187;SDS011;73735;52.134;5.436;2024-03-25T13:17:21;11.82;;;3.60;;
80187;SDS011;73735;52.134;5.436;2024-03-25T13:19:46;6.63;;;3.10;;
80187;SDS011;73735;52.134;5.436;2024-03-25T13:22:12;7.20;;;3.00;;
80187;SDS011;73735;52.134;5.436;2024-03-25T13:24:38;6.25;;;2.85;;
80187;SDS011;73735;52.134;5.436;2024-03-25T13:27:03;8.98;;;2.80;;
80187;SDS011;73735;52.134;5.436;2024-03-25T13:29:29;6.95;;;2.85;;
80187;SDS011;73735;52.134;5.436;2024-03-25T13:31:55;5.82;;;3.22;;
80187;SDS011;73735;52.134;5.436;2024-03-25T13:34:20;5.45;;;2.97;;
80187;SDS011;73735;52.134;5.436;2024-03-25T13:36:46;7.30;;;2.80;;
80187;SDS011;73735;52.134;5.436;2024-03-25T13:39:11;7.75;;;2.40;;
80187;SDS011;73735;52.134;5.436;2024-03-25T13:41:37;5.80;;;2.65;;
80187;SDS011;73735;52.134;5.436;2024-03-25T13:44:03;8.95;;;2.70;;
80187;SDS011;73735;52.134;5.436;2024-03-25T13:46:29;9.05;;;3.15;;
80187;SDS011;73735;52.134;5.436;2024-03-25T13:48:54;8.65;;;3.08;;
80187;SDS011;73735;52.134;5.436;2024-03-25T13:51:20;7.95;;;2.75;;
80187;SDS011;73735;52.134;5.436;2024-03-25T13:53:45;8.38;;;2.97;;
80187;SDS011;73735;52.134;5.436;2024-03-25T13:56:13;7.05;;;2.78;;
80187;SDS011;73735;52.134;5.436;2024-03-25T13:58:39;5.35;;;2.45;;
80187;SDS011;73735;52.134;5.436;2024-03-25T14:01:04;6.80;;;2.92;;
80187;SDS011;73735;52.134;5.436;2024-03-25T14:03:31;6.65;;;2.60;;
80187;SDS011;73735;52.134;5.436;2024-03-25T14:05:56;5.88;;;2.40;;
80187;SDS011;73735;52.134;5.436;2024-03-25T14:08:22;7.18;;;2.58;;
80187;SDS011;73735;52.134;5.436;2024-03-25T14:10:56;8.23;;;2.70;;
80187;SDS011;73735;52.134;5.436;2024-03-25T14:13:25;7.60;;;2.40;;
80187;SDS011;73735;52.134;5.436;2024-03-25T14:15:51;8.07;;;2.60;;
80187;SDS011;73735;52.134;5.436;2024-03-25T14:18:17;7.57;;;2.70;;
80187;SDS011;73735;52.134;5.436;2024-03-25T14:20:43;5.63;;;2.45;;
80187;SDS011;73735;52.134;5.436;2024-03-25T14:23:08;6.22;;;2.40;;
80187;SDS011;73735;52.134;5.436;2024-03-25T14:25:34;5.60;;;2.20;;
80187;SDS011;73735;52.134;5.436;2024-03-25T14:27:59;7.70;;;2.30;;
80187;SDS011;73735;52.134;5.436;2024-03-25T14:30:25;7.13;;;2.22;;
80187;SDS011;73735;52.134;5.436;2024-03-25T14:32:51;5.15;;;2.15;;
80187;SDS011;73735;52.134;5.436;2024-03-25T14:35:16;7.10;;;2.55;;
80187;SDS011;73735;52.134;5.436;2024-03-25T14:37:42;5.57;;;2.33;;
80187;SDS011;73735;52.134;5.436;2024-03-25T14:40:08;6.80;;;2.33;;
80187;SDS011;73735;52.134;5.436;2024-03-25T14:42:34;5.63;;;2.47;;
80187;SDS011;73735;52.134;5.436;2024-03-25T14:44:59;6.43;;;2.58;;
80187;SDS011;73735;52.134;5.436;2024-03-25T14:47:25;6.50;;;2.28;;
80187;SDS011;73735;52.134;5.436;2024-03-25T14:49:50;6.78;;;2.65;;